createdAt,value
2017-05-28T00:00:15.272Z,17.46
2017-05-28T00:01:29.026Z,17.43
2017-05-28T00:02:44.531Z,17.4
2017-05-28T00:04:00.177Z,17.42
2017-05-28T00:05:12.832Z,17.36
2017-05-28T00:06:28.331Z,17.32
2017-05-28T00:07:44.004Z,17.31
2017-05-28T00:08:59.698Z,17.19
2017-05-28T00:10:15.179Z,17.2
2017-05-28T00:11:30.625Z,17.12
2017-05-28T00:12:44.610Z,17.08
2017-05-28T00:14:00.286Z,17.08
2017-05-28T00:15:15.743Z,17.06
2017-05-28T00:16:29.750Z,17.05
2017-05-28T00:17:45.250Z,16.98
2017-05-28T00:19:00.981Z,17.06
2017-05-28T00:20:16.437Z,16.99
2017-05-28T00:21:31.901Z,16.98
2017-05-28T00:22:46.336Z,17.04
2017-05-28T00:24:02.147Z,16.99
2017-05-28T00:25:17.594Z,16.96
2017-05-28T00:26:33.085Z,16.96
2017-05-28T00:28:19.306Z,17.05
2017-05-28T00:29:34.603Z,17.04
2017-05-28T00:30:50.046Z,17.02
2017-05-28T00:32:05.588Z,17.01
2017-05-28T00:33:20.981Z,16.96
2017-05-28T00:34:36.594Z,16.86
2017-05-28T00:35:52.122Z,16.87
2017-05-28T00:37:07.541Z,16.68
2017-05-28T00:38:21.685Z,16.66
2017-05-28T00:39:37.287Z,16.68
2017-05-28T00:40:52.875Z,16.53
2017-05-28T00:42:07.025Z,16.51
2017-05-28T00:43:22.470Z,16.56
2017-05-28T00:44:38.132Z,16.51
2017-05-28T00:45:52.269Z,16.54
2017-05-28T00:47:07.719Z,16.5
2017-05-28T00:48:23.201Z,16.47
2017-05-28T00:49:38.842Z,16.42
2017-05-28T00:50:52.815Z,16.47
2017-05-28T00:52:08.261Z,16.51
2017-05-28T00:53:23.754Z,16.46
2017-05-28T00:54:39.440Z,16.44
2017-05-28T00:55:54.877Z,16.44
2017-05-28T00:57:10.335Z,16.44
2017-05-28T00:58:25.782Z,16.49
2017-05-28T00:59:41.497Z,16.39
2017-05-28T01:00:56.959Z,16.47
2017-05-28T01:02:12.388Z,16.49
2017-05-28T01:03:27.880Z,16.46
2017-05-28T01:04:43.646Z,16.44
2017-05-28T01:05:59.028Z,16.43
2017-05-28T01:07:14.507Z,16.43
2017-05-28T01:08:29.962Z,16.32
2017-05-28T01:09:45.598Z,16.29
2017-05-28T01:11:01.089Z,16.28
2017-05-28T01:12:16.584Z,16.21
2017-05-28T01:13:31.732Z,16.17
2017-05-28T01:14:47.386Z,16.2
2017-05-28T01:16:02.831Z,16.16
2017-05-28T01:17:16.994Z,16.11
2017-05-28T01:18:31.084Z,16.02
2017-05-28T01:19:45.449Z,16.02
2017-05-28T01:21:00.894Z,15.94
2017-05-28T01:22:16.366Z,15.8
2017-05-28T01:23:31.798Z,15.91
2017-05-28T01:24:47.454Z,15.87
2017-05-28T01:26:01.591Z,15.87
2017-05-28T01:27:17.063Z,15.94
2017-05-28T01:28:32.539Z,15.79
2017-05-28T01:29:48.374Z,15.82
2017-05-28T01:31:03.794Z,15.8
2017-05-28T01:32:19.219Z,15.79
2017-05-28T01:33:33.482Z,15.79
2017-05-28T01:34:49.117Z,15.8
2017-05-28T01:36:03.276Z,15.76
2017-05-28T01:37:18.675Z,15.82
2017-05-28T01:38:31.532Z,15.82
2017-05-28T01:39:47.217Z,15.72
2017-05-28T01:41:01.375Z,15.73
2017-05-28T01:42:15.905Z,15.7
2017-05-28T01:43:31.363Z,15.57
2017-05-28T01:44:46.997Z,15.63
2017-05-28T01:46:02.707Z,15.57
2017-05-28T01:47:18.388Z,15.66
2017-05-28T01:48:33.859Z,15.7
2017-05-28T01:49:49.336Z,15.7
2017-05-28T01:51:05.386Z,15.68
2017-05-28T01:52:20.846Z,15.7
2017-05-28T01:53:36.303Z,15.68
2017-05-28T01:54:51.749Z,15.79
2017-05-28T01:56:07.590Z,15.72
2017-05-28T01:57:23.098Z,15.73
2017-05-28T01:58:38.539Z,15.79
2017-05-28T01:59:53.595Z,15.79
2017-05-28T02:01:07.961Z,15.8
2017-05-28T02:02:23.449Z,15.75
2017-05-28T02:03:39.131Z,15.69
2017-05-28T02:04:54.603Z,15.69
2017-05-28T02:06:08.813Z,15.7
2017-05-28T02:07:24.248Z,15.68
2017-05-28T02:08:39.865Z,15.54
2017-05-28T02:09:52.638Z,15.58
2017-05-28T02:11:06.847Z,15.55
2017-05-28T02:12:22.857Z,15.51
2017-05-28T02:13:36.983Z,15.55
2017-05-28T02:14:52.452Z,15.53
2017-05-28T02:16:06.710Z,15.45
2017-05-28T02:17:22.142Z,15.46
2017-05-28T02:18:37.683Z,15.32
2017-05-28T02:19:53.141Z,15.27
2017-05-28T02:21:07.438Z,15.21
2017-05-28T02:22:22.873Z,15.23
2017-05-28T02:23:37.080Z,15.11
2017-05-28T02:24:52.586Z,15.08
2017-05-28T02:26:08.221Z,15.08
2017-05-28T02:27:23.653Z,15.08
2017-05-28T02:28:39.075Z,15.05
2017-05-28T02:29:54.484Z,15.06
2017-05-28T02:31:10.165Z,15.03
2017-05-28T02:32:25.706Z,15.05
2017-05-28T02:33:39.743Z,15.03
2017-05-28T02:34:52.395Z,15.08
2017-05-28T02:36:07.966Z,14.98
2017-05-28T02:37:23.414Z,14.95
2017-05-28T02:38:38.970Z,14.9
2017-05-28T02:39:54.409Z,14.88
2017-05-28T02:41:07.115Z,14.87
2017-05-28T02:42:22.815Z,14.72
2017-05-28T02:43:38.335Z,14.69
2017-05-28T02:44:53.752Z,14.67
2017-05-28T02:46:07.924Z,14.74
2017-05-28T02:47:23.585Z,14.65
2017-05-28T02:48:39.001Z,14.69
2017-05-28T02:49:54.439Z,14.65
2017-05-28T02:51:09.862Z,14.67
2017-05-28T02:52:22.952Z,14.52
2017-05-28T02:53:38.329Z,14.54
2017-05-28T02:54:52.455Z,14.56
2017-05-28T02:56:07.872Z,14.54
2017-05-28T02:57:23.541Z,14.47
2017-05-28T02:58:37.542Z,14.54
2017-05-28T02:59:53.021Z,14.56
2017-05-28T03:01:07.146Z,14.63
2017-05-28T03:02:22.823Z,14.47
2017-05-28T03:03:37.015Z,14.39
2017-05-28T03:04:52.458Z,14.43
2017-05-28T03:06:07.558Z,14.39
2017-05-28T03:07:22.009Z,14.39
2017-05-28T03:08:37.668Z,14.45
2017-05-28T03:09:53.106Z,14.44
2017-05-28T03:11:08.573Z,14.37
2017-05-28T03:12:24.243Z,14.37
2017-05-28T03:13:38.435Z,14.36
2017-05-28T03:14:53.856Z,14.4
2017-05-28T03:16:09.284Z,14.25
2017-05-28T03:17:24.969Z,14.26
2017-05-28T03:18:39.113Z,14.28
2017-05-28T03:19:53.246Z,14.24
2017-05-28T03:21:08.638Z,14.25
2017-05-28T03:22:24.289Z,14.21
2017-05-28T03:23:40.029Z,14.11
2017-05-28T03:24:55.669Z,14.14
2017-05-28T03:26:11.130Z,14.18
2017-05-28T03:27:26.866Z,14.14
2017-05-28T03:28:42.417Z,14.18
2017-05-28T03:29:57.837Z,14.14
2017-05-28T03:31:13.330Z,14.11
2017-05-28T03:32:28.973Z,14.14
2017-05-28T03:33:42.915Z,14.13
2017-05-28T03:34:57.015Z,14.04
2017-05-28T03:36:11.183Z,14.16
2017-05-28T03:37:26.635Z,14.13
2017-05-28T03:38:40.988Z,14.11
2017-05-28T03:39:56.475Z,14.06
2017-05-28T03:41:11.921Z,14.19
2017-05-28T03:42:26.045Z,14.11
2017-05-28T03:43:41.668Z,14.1
2017-05-28T03:44:57.152Z,14.11
2017-05-28T03:46:12.563Z,14.16
2017-05-28T03:47:28.053Z,14.1
2017-05-28T03:48:43.662Z,14.09
2017-05-28T03:49:59.143Z,14.14
2017-05-28T03:51:12.874Z,14.09
2017-05-28T03:52:28.338Z,14.06
2017-05-28T03:53:42.757Z,14.16
2017-05-28T03:55:29.039Z,14.13
2017-05-28T03:56:44.416Z,14.22
2017-05-28T03:57:58.778Z,14.21
2017-05-28T03:59:14.199Z,14.19
2017-05-28T04:00:29.701Z,14.1
2017-05-28T04:01:45.138Z,14.09
2017-05-28T04:03:00.719Z,14.16
2017-05-28T04:04:16.155Z,14.09
2017-05-28T04:05:31.572Z,14.11
2017-05-28T04:06:47.286Z,14.19
2017-05-28T04:08:02.923Z,14.19
2017-05-28T04:09:18.313Z,14.21
2017-05-28T04:10:33.758Z,14.19
2017-05-28T04:11:49.214Z,14.24
2017-05-28T04:13:04.839Z,14.25
2017-05-28T04:14:20.316Z,14.26
2017-05-28T04:15:35.772Z,14.32
2017-05-28T04:16:50.865Z,14.24
2017-05-28T04:18:06.822Z,14.34
2017-05-28T04:19:22.286Z,14.37
2017-05-28T04:20:37.738Z,14.39
2017-05-28T04:21:53.200Z,14.37
2017-05-28T04:23:09.054Z,14.37
2017-05-28T04:24:24.501Z,14.4
2017-05-28T04:25:39.851Z,14.45
2017-05-28T04:26:55.208Z,14.51
2017-05-28T04:28:10.859Z,14.52
2017-05-28T04:29:26.273Z,14.51
2017-05-28T04:30:41.732Z,14.56
2017-05-28T04:31:57.172Z,14.51
2017-05-28T04:33:12.840Z,14.52
2017-05-28T04:34:28.251Z,14.52
2017-05-28T04:35:43.610Z,14.52
2017-05-28T04:36:59.074Z,14.58
2017-05-28T04:38:14.653Z,14.54
2017-05-28T04:39:28.778Z,14.56
2017-05-28T04:40:42.926Z,14.67
2017-05-28T04:41:58.355Z,14.67
2017-05-28T04:43:14.002Z,14.69
2017-05-28T04:44:28.077Z,14.7
2017-05-28T04:45:43.499Z,14.69
2017-05-28T04:46:58.976Z,14.74
2017-05-28T04:48:14.801Z,14.74
2017-05-28T04:49:29.150Z,14.84
2017-05-28T04:50:44.245Z,14.87
2017-05-28T04:51:58.379Z,14.95
2017-05-28T04:53:14.003Z,14.88
2017-05-28T04:54:29.505Z,14.98
2017-05-28T04:55:44.948Z,14.93
2017-05-28T04:57:00.448Z,15
2017-05-28T04:58:16.116Z,15.03
2017-05-28T04:59:30.370Z,15.06
2017-05-28T05:00:46.049Z,15.06
2017-05-28T05:02:01.471Z,15.11
2017-05-28T05:03:17.318Z,15.08
2017-05-28T05:04:32.861Z,15.25
2017-05-28T05:05:48.266Z,15.2
2017-05-28T05:07:03.747Z,15.24
2017-05-28T05:08:19.400Z,15.27
2017-05-28T05:09:33.359Z,15.33
2017-05-28T05:10:48.756Z,15.4
2017-05-28T05:12:01.596Z,15.46
2017-05-28T05:13:17.057Z,15.45
2017-05-28T05:14:33.025Z,15.46
2017-05-28T05:15:48.493Z,15.48
2017-05-28T05:17:03.908Z,15.48
2017-05-28T05:18:19.403Z,15.5
2017-05-28T05:19:35.109Z,15.58
2017-05-28T05:20:50.518Z,15.58
2017-05-28T05:22:05.973Z,15.64
2017-05-28T05:23:19.758Z,15.58
2017-05-28T05:24:32.799Z,15.64
2017-05-28T05:25:48.269Z,15.68
2017-05-28T05:27:01.136Z,15.66
2017-05-28T05:28:16.565Z,15.66
2017-05-28T05:29:32.183Z,15.68
2017-05-28T05:30:46.194Z,15.82
2017-05-28T05:32:01.605Z,15.88
2017-05-28T05:33:17.062Z,15.79
2017-05-28T05:34:32.758Z,15.89
2017-05-28T05:35:46.977Z,15.8
2017-05-28T05:37:02.707Z,15.95
2017-05-28T05:38:16.800Z,15.98
2017-05-28T05:39:32.687Z,16.06
2017-05-28T05:40:46.803Z,16.21
2017-05-28T05:42:02.164Z,16.19
2017-05-28T05:43:17.794Z,16.1
2017-05-28T05:44:33.447Z,16.25
2017-05-28T05:45:48.853Z,16.29
2017-05-28T05:47:02.830Z,16.43
2017-05-28T05:48:18.310Z,16.38
2017-05-28T05:49:32.733Z,16.43
2017-05-28T05:50:48.539Z,16.47
2017-05-28T05:52:02.659Z,16.44
2017-05-28T05:53:16.799Z,16.42
2017-05-28T05:54:32.188Z,16.47
2017-05-28T05:55:47.788Z,16.47
2017-05-28T05:57:03.149Z,16.61
2017-05-28T05:58:17.338Z,16.65
2017-05-28T05:59:33.010Z,16.69
2017-05-28T06:00:48.814Z,16.68
2017-05-28T06:02:03.915Z,16.79
2017-05-28T06:03:19.363Z,16.76
2017-05-28T06:04:34.766Z,16.89
2017-05-28T06:05:50.458Z,16.96
2017-05-28T06:07:04.603Z,17.01
2017-05-28T06:08:20.040Z,17.01
2017-05-28T06:09:35.536Z,17.09
2017-05-28T06:10:51.221Z,17.09
2017-05-28T06:12:04.941Z,17.14
2017-05-28T06:13:19.082Z,17.09
2017-05-28T06:14:34.597Z,17.14
2017-05-28T06:15:50.254Z,17.24
2017-05-28T06:17:05.655Z,17.2
2017-05-28T06:18:20.039Z,17.27
2017-05-28T06:19:34.172Z,17.4
2017-05-28T06:20:49.762Z,17.43
2017-05-28T06:22:02.902Z,17.45
2017-05-28T06:23:16.952Z,17.61
2017-05-28T06:24:31.083Z,17.6
2017-05-28T06:25:46.740Z,17.58
2017-05-28T06:27:02.220Z,17.65
2017-05-28T06:28:17.635Z,17.67
2017-05-28T06:29:33.117Z,17.75
2017-05-28T06:30:48.755Z,17.73
2017-05-28T06:32:02.528Z,17.68
2017-05-28T06:33:16.567Z,17.91
2017-05-28T06:34:32.033Z,17.89
2017-05-28T06:35:47.639Z,17.87
2017-05-28T06:37:03.089Z,17.89
2017-05-28T06:38:18.566Z,18.01
2017-05-28T06:39:34.011Z,17.95
2017-05-28T06:40:48.204Z,18.05
2017-05-28T06:42:03.613Z,18.02
2017-05-28T06:43:19.337Z,18.09
2017-05-28T06:44:34.824Z,18.13
2017-05-28T06:45:49.006Z,18.19
2017-05-28T06:47:04.435Z,18.23
2017-05-28T06:48:19.896Z,18.34
2017-05-28T06:49:35.369Z,18.42
2017-05-28T06:50:51.014Z,18.35
2017-05-28T06:52:06.466Z,18.44
2017-05-28T06:53:21.974Z,18.53
2017-05-28T06:54:37.454Z,18.52
2017-05-28T06:55:53.134Z,18.59
2017-05-28T06:57:08.527Z,18.59
2017-05-28T06:58:24.024Z,18.6
2017-05-28T06:59:39.495Z,18.62
2017-05-28T07:00:55.348Z,18.72
2017-05-28T07:02:10.824Z,18.75
2017-05-28T07:03:26.186Z,18.8
2017-05-28T07:04:41.741Z,18.8
2017-05-28T07:05:56.121Z,18.86
2017-05-28T07:07:11.533Z,18.84
2017-05-28T07:08:25.681Z,18.91
2017-05-28T07:09:41.378Z,18.97
2017-05-28T07:10:57.213Z,18.95
2017-05-28T07:12:12.640Z,18.94
2017-05-28T07:13:28.085Z,18.94
2017-05-28T07:14:43.198Z,19.15
2017-05-28T07:15:57.561Z,19.19
2017-05-28T07:17:11.701Z,19.16
2017-05-28T07:18:27.175Z,19.13
2017-05-28T07:19:42.599Z,19.25
2017-05-28T07:20:58.307Z,19.33
2017-05-28T07:22:13.670Z,19.31
2017-05-28T07:23:29.062Z,19.31
2017-05-28T07:24:45.186Z,19.49
2017-05-28T07:26:00.896Z,19.56
2017-05-28T07:27:16.381Z,19.55
2017-05-28T07:28:31.819Z,19.65
2017-05-28T07:29:47.241Z,19.76
2017-05-28T07:31:02.889Z,19.7
2017-05-28T07:32:18.691Z,19.74
2017-05-28T07:33:34.218Z,19.79
2017-05-28T07:34:49.666Z,19.83
2017-05-28T07:36:05.399Z,19.88
2017-05-28T07:37:20.848Z,19.97
2017-05-28T07:38:36.546Z,19.97
2017-05-28T07:39:50.718Z,20.14
2017-05-28T07:41:04.869Z,20.04
2017-05-28T07:42:19.249Z,20.17
2017-05-28T07:43:33.386Z,20.12
2017-05-28T07:44:47.412Z,20.3
2017-05-28T07:46:03.170Z,20.31
2017-05-28T07:47:18.853Z,20.38
2017-05-28T07:48:34.402Z,20.48
2017-05-28T07:49:49.834Z,20.43
2017-05-28T07:51:05.552Z,20.57
2017-05-28T07:52:19.883Z,20.67
2017-05-28T07:53:35.890Z,20.73
2017-05-28T07:54:50.056Z,20.83
2017-05-28T07:56:05.490Z,20.85
2017-05-28T07:57:21.126Z,20.94
2017-05-28T07:58:36.872Z,20.98
2017-05-28T07:59:52.343Z,21.09
2017-05-28T08:01:07.810Z,21.13
2017-05-28T08:02:23.492Z,21.09
2017-05-28T08:03:38.977Z,21.22
2017-05-28T08:04:54.395Z,21.16
2017-05-28T08:06:08.394Z,21.19
2017-05-28T08:07:24.083Z,21.18
2017-05-28T08:08:39.940Z,21.28
2017-05-28T08:09:55.377Z,21.33
2017-05-28T08:11:09.603Z,21.4
2017-05-28T08:12:25.267Z,21.4
2017-05-28T08:13:40.741Z,21.58
2017-05-28T08:14:54.876Z,21.6
2017-05-28T08:16:09.209Z,21.75
2017-05-28T08:17:23.552Z,21.83
2017-05-28T08:18:39.359Z,21.93
2017-05-28T08:19:54.847Z,22.03
2017-05-28T08:21:10.341Z,22.11
2017-05-28T08:22:26.013Z,22.23
2017-05-28T08:23:40.154Z,22.34
2017-05-28T08:24:55.448Z,22.52
2017-05-28T08:26:11.210Z,22.63
2017-05-28T08:27:26.861Z,22.76
2017-05-28T08:28:42.263Z,22.86
2017-05-28T08:29:57.711Z,23.03
2017-05-28T08:31:13.149Z,23.13
2017-05-28T08:32:28.835Z,23.23
2017-05-28T08:33:42.870Z,23.36
2017-05-28T08:34:58.332Z,23.57
2017-05-28T08:36:12.484Z,23.68
2017-05-28T08:37:28.350Z,23.72
2017-05-28T08:38:42.463Z,23.69
2017-05-28T08:39:57.852Z,23.8
2017-05-28T08:41:13.311Z,23.88
2017-05-28T08:42:29.054Z,24.01
2017-05-28T08:43:44.480Z,24.02
2017-05-28T08:44:58.952Z,24.16
2017-05-28T08:46:14.380Z,24.31
2017-05-28T08:47:30.085Z,24.62
2017-05-28T08:48:45.679Z,24.76
2017-05-28T08:50:00.748Z,25.1
2017-05-28T08:51:16.211Z,25.28
2017-05-28T08:52:31.897Z,25.62
2017-05-28T08:53:47.341Z,26.12
2017-05-28T08:55:02.847Z,26.58
2017-05-28T08:56:18.286Z,27.11
2017-05-28T08:57:33.950Z,27.8
2017-05-28T08:58:49.426Z,28.35
2017-05-28T09:00:02.147Z,28.61
2017-05-28T09:01:17.967Z,28.98
2017-05-28T09:02:33.609Z,29.35
2017-05-28T09:03:49.046Z,29.65
2017-05-28T09:05:04.541Z,29.88
2017-05-28T09:06:20.056Z,29.88
2017-05-28T09:07:34.433Z,30
2017-05-28T09:08:49.904Z,29.94
2017-05-28T09:10:05.324Z,30.04
2017-05-28T09:11:20.805Z,30.11
2017-05-28T09:12:36.533Z,30.35
2017-05-28T09:13:52.007Z,30.61
2017-05-28T09:15:07.527Z,30.9
2017-05-28T09:16:23.011Z,31.22
2017-05-28T09:17:38.692Z,31.58
2017-05-28T09:18:54.191Z,31.9
2017-05-28T09:20:09.627Z,32.11
2017-05-28T09:21:24.827Z,32.26
2017-05-28T09:22:40.517Z,32.32
2017-05-28T09:23:55.980Z,32.32
2017-05-28T09:25:10.065Z,32.51
2017-05-28T09:26:25.569Z,32.63
2017-05-28T09:27:39.441Z,32.98
2017-05-28T09:28:53.680Z,33.25
2017-05-28T09:30:07.850Z,33.54
2017-05-28T09:31:23.358Z,33.83
2017-05-28T09:32:39.101Z,33.87
2017-05-28T09:33:55.131Z,33.94
2017-05-28T09:35:10.712Z,34.05
2017-05-28T09:36:26.239Z,34.17
2017-05-28T09:37:41.969Z,34.29
2017-05-28T09:38:57.711Z,34.31
2017-05-28T09:40:11.717Z,34.48
2017-05-28T09:41:27.383Z,34.6
2017-05-28T09:42:40.402Z,34.77
2017-05-28T09:43:56.187Z,34.84
2017-05-28T09:45:11.985Z,35.04
2017-05-28T09:46:27.467Z,35.13
2017-05-28T09:47:42.967Z,35.34
2017-05-28T09:48:56.044Z,35.45
2017-05-28T09:50:11.547Z,35.44
2017-05-28T09:51:25.680Z,35.45
2017-05-28T09:52:41.499Z,35.26
2017-05-28T09:53:55.549Z,35.22
2017-05-28T09:55:10.206Z,35.28
2017-05-28T09:56:24.469Z,35.4
2017-05-28T09:57:40.291Z,35.42
2017-05-28T09:58:55.942Z,35.42
2017-05-28T10:00:11.464Z,35.62
2017-05-28T10:01:27.038Z,35.57
2017-05-28T10:02:42.532Z,35.45
2017-05-28T10:03:56.881Z,35.38
2017-05-28T10:05:12.333Z,35.19
2017-05-28T10:06:27.848Z,35.19
2017-05-28T10:07:43.412Z,34.86
2017-05-28T10:08:59.064Z,34.76
2017-05-28T10:10:14.815Z,34.73
2017-05-28T10:11:30.330Z,34.5
2017-05-28T10:12:45.436Z,34.22
2017-05-28T10:14:01.035Z,34.05
2017-05-28T10:15:16.565Z,33.9
2017-05-28T10:16:31.997Z,33.76
2017-05-28T10:17:47.602Z,33.6
2017-05-28T10:19:03.528Z,33.45
2017-05-28T10:20:19.031Z,33.23
2017-05-28T10:21:34.515Z,33.01
2017-05-28T10:22:48.656Z,32.82
2017-05-28T10:24:03.088Z,32.68
2017-05-28T10:25:18.988Z,32.32
2017-05-28T10:26:34.479Z,32.03
2017-05-28T10:27:49.967Z,32.04
2017-05-28T10:29:05.604Z,31.75
2017-05-28T10:30:21.155Z,31.73
2017-05-28T10:31:36.599Z,31.68
2017-05-28T10:32:52.091Z,31.61
2017-05-28T10:34:07.792Z,31.82
2017-05-28T10:35:21.584Z,31.84
2017-05-28T10:36:37.093Z,32.06
2017-05-28T10:37:52.851Z,32.17
2017-05-28T10:39:08.470Z,32.38
2017-05-28T10:40:23.991Z,32.17
2017-05-28T10:41:39.471Z,31.99
2017-05-28T10:42:55.029Z,31.92
2017-05-28T10:44:10.611Z,31.72
2017-05-28T10:45:26.084Z,31.53
2017-05-28T10:46:41.657Z,31.32
2017-05-28T10:47:57.158Z,31.31
2017-05-28T10:49:12.831Z,31.22
2017-05-28T10:50:28.301Z,31.13
2017-05-28T10:51:43.824Z,30.93
2017-05-28T10:52:59.299Z,30.75
2017-05-28T10:54:15.011Z,30.72
2017-05-28T10:55:30.456Z,30.59
2017-05-28T10:56:45.968Z,30.54
2017-05-28T10:58:01.426Z,30.61
2017-05-28T10:59:17.478Z,30.69
2017-05-28T11:00:33.004Z,30.75
2017-05-28T11:01:49.047Z,30.98
2017-05-28T11:03:04.608Z,31.16
2017-05-28T11:04:20.328Z,31.32
2017-05-28T11:05:35.838Z,31.55
2017-05-28T11:06:51.334Z,31.75
2017-05-28T11:08:06.857Z,31.84
2017-05-28T11:09:22.891Z,31.97
2017-05-28T11:10:38.654Z,32.09
2017-05-28T11:11:54.197Z,32.28
2017-05-28T11:13:09.687Z,32.43
2017-05-28T11:14:25.272Z,32.59
2017-05-28T11:15:40.775Z,32.81
2017-05-28T11:16:54.951Z,32.85
2017-05-28T11:18:10.413Z,33.03
2017-05-28T11:19:26.166Z,33.1
2017-05-28T11:20:41.660Z,33.22
2017-05-28T11:21:57.126Z,33.22
2017-05-28T11:23:11.221Z,33.26
2017-05-28T11:24:25.365Z,33.37
2017-05-28T11:25:41.080Z,33.35
2017-05-28T11:26:56.752Z,33.19
2017-05-28T11:28:12.321Z,33.1
2017-05-28T11:29:27.828Z,33.04
2017-05-28T11:30:43.561Z,33.1
2017-05-28T11:31:59.044Z,33.04
2017-05-28T11:33:14.486Z,33.04
2017-05-28T11:34:30.081Z,33.08
2017-05-28T11:35:46.109Z,33.17
2017-05-28T11:37:01.682Z,33.22
2017-05-28T11:38:17.239Z,33.37
2017-05-28T11:39:33.024Z,33.42
2017-05-28T11:40:47.448Z,33.39
2017-05-28T11:42:03.251Z,33.38
2017-05-28T11:43:19.064Z,33.42
2017-05-28T11:44:34.578Z,33.56
2017-05-28T11:45:50.255Z,33.57
2017-05-28T11:47:06.003Z,33.52
2017-05-28T11:48:21.479Z,33.53
2017-05-28T11:49:36.652Z,33.59
2017-05-28T11:50:52.414Z,33.61
2017-05-28T11:52:07.881Z,33.64
2017-05-28T11:53:23.435Z,33.68
2017-05-28T11:54:39.021Z,33.69
2017-05-28T11:55:53.413Z,33.79
2017-05-28T11:57:08.844Z,33.71
2017-05-28T11:58:24.295Z,33.61
2017-05-28T11:59:38.123Z,33.59
2017-05-28T12:00:54.147Z,33.57
2017-05-28T12:02:09.666Z,33.59
2017-05-28T12:03:25.169Z,33.48
2017-05-28T12:04:39.350Z,33.27
2017-05-28T12:05:55.093Z,33.19
2017-05-28T12:07:10.584Z,33.03
2017-05-28T12:08:26.095Z,33
2017-05-28T12:09:41.641Z,32.97
2017-05-28T12:10:57.330Z,32.88
2017-05-28T12:12:12.794Z,32.69
2017-05-28T12:13:28.288Z,32.7
2017-05-28T12:14:44.121Z,32.68
2017-05-28T12:16:00.095Z,32.59
2017-05-28T12:17:15.653Z,32.38
2017-05-28T12:18:31.182Z,32.28
2017-05-28T12:19:46.914Z,32.38
2017-05-28T12:21:02.638Z,32.41
2017-05-28T12:22:18.299Z,32.43
2017-05-28T12:23:33.735Z,32.48
2017-05-28T12:24:49.222Z,32.54
2017-05-28T12:26:03.449Z,32.6
2017-05-28T12:27:19.035Z,32.47
2017-05-28T12:28:34.586Z,32.43
2017-05-28T12:29:50.112Z,32.41
2017-05-28T12:31:05.831Z,32.47
2017-05-28T12:32:21.376Z,32.25
2017-05-28T12:33:36.919Z,32.31
2017-05-28T12:34:52.455Z,32.25
2017-05-28T12:36:08.718Z,32.16
2017-05-28T12:37:24.433Z,31.94
2017-05-28T12:38:39.915Z,31.94
2017-05-28T12:39:55.347Z,31.73
2017-05-28T12:41:11.141Z,31.53
2017-05-28T12:42:23.906Z,31.35
2017-05-28T12:43:39.825Z,31.23
2017-05-28T12:44:55.285Z,31.12
2017-05-28T12:46:11.003Z,30.93
2017-05-28T12:47:26.450Z,30.85
2017-05-28T12:48:40.737Z,30.69
2017-05-28T12:49:56.233Z,30.51
2017-05-28T12:51:10.733Z,30.3
2017-05-28T12:52:26.184Z,30.23
2017-05-28T12:54:12.391Z,30
2017-05-28T12:55:28.301Z,29.85
2017-05-28T12:56:44.083Z,29.69
2017-05-28T12:57:59.581Z,29.57
2017-05-28T12:59:15.073Z,29.51
2017-05-28T13:00:30.658Z,29.43
2017-05-28T13:01:46.377Z,29.39
2017-05-28T13:03:01.837Z,29.29
2017-05-28T13:04:17.340Z,29.35
2017-05-28T13:05:33.118Z,29.29
2017-05-28T13:06:47.541Z,29.18
2017-05-28T13:08:03.285Z,29.03
2017-05-28T13:09:18.760Z,29.03
2017-05-28T13:10:34.523Z,29.01
2017-05-28T13:11:49.020Z,29.06
2017-05-28T13:13:04.563Z,29.03
2017-05-28T13:14:20.082Z,29.03
2017-05-28T13:15:35.526Z,29.14
2017-05-28T13:16:51.344Z,29.14
2017-05-28T13:18:06.871Z,29.2
2017-05-28T13:19:22.341Z,29.28
2017-05-28T13:20:37.816Z,29.31
2017-05-28T13:21:53.611Z,29.39
2017-05-28T13:23:09.140Z,29.45
2017-05-28T13:24:23.337Z,29.58
2017-05-28T13:25:37.294Z,29.5
2017-05-28T13:26:52.999Z,29.51
2017-05-28T13:28:08.544Z,29.53
2017-05-28T13:29:24.033Z,29.51
2017-05-28T13:30:38.122Z,29.44
2017-05-28T13:31:53.813Z,29.43
2017-05-28T13:33:09.428Z,29.33
2017-05-28T13:34:23.642Z,29.33
2017-05-28T13:35:37.854Z,29.29
2017-05-28T13:36:53.500Z,29.17
2017-05-28T13:38:08.952Z,29.14
2017-05-28T13:39:24.481Z,29.06
2017-05-28T13:40:37.339Z,29.03
2017-05-28T13:41:52.837Z,28.95
2017-05-28T13:43:08.573Z,28.88
2017-05-28T13:44:22.605Z,28.72
2017-05-28T13:45:36.785Z,28.69
2017-05-28T13:46:52.228Z,28.58
2017-05-28T13:48:06.586Z,28.41
2017-05-28T13:49:22.093Z,28.19
2017-05-28T13:50:37.584Z,28.16
2017-05-28T13:51:53.022Z,27.95
2017-05-28T13:53:07.433Z,27.9
2017-05-28T13:54:21.698Z,27.82
2017-05-28T13:55:37.226Z,27.68
2017-05-28T13:56:52.683Z,27.74
2017-05-28T13:58:07.079Z,27.63
2017-05-28T13:59:22.521Z,27.48
2017-05-28T14:00:38.072Z,27.43
2017-05-28T14:01:53.528Z,27.27
2017-05-28T14:03:07.921Z,27.24
2017-05-28T14:04:23.349Z,27.23
2017-05-28T14:05:38.842Z,27.14
2017-05-28T14:06:54.702Z,26.95
2017-05-28T14:08:10.453Z,26.92
2017-05-28T14:09:25.826Z,26.88
2017-05-28T14:10:40.041Z,26.82
2017-05-28T14:11:54.227Z,26.92
2017-05-28T14:13:09.926Z,26.83
2017-05-28T14:14:25.400Z,26.78
2017-05-28T14:15:40.890Z,26.75
2017-05-28T14:16:56.433Z,26.71
2017-05-28T14:18:12.139Z,26.68
2017-05-28T14:19:27.603Z,26.62
2017-05-28T14:20:43.133Z,26.7
2017-05-28T14:21:58.677Z,26.67
2017-05-28T14:23:14.377Z,26.59
2017-05-28T14:24:29.862Z,26.62
2017-05-28T14:25:45.414Z,26.56
2017-05-28T14:26:59.657Z,26.49
2017-05-28T14:28:15.301Z,26.46
2017-05-28T14:29:29.486Z,26.51
2017-05-28T14:30:44.962Z,26.43
2017-05-28T14:31:59.152Z,26.43
2017-05-28T14:33:14.968Z,26.39
2017-05-28T14:34:30.578Z,26.4
2017-05-28T14:35:46.051Z,26.36
2017-05-28T14:37:01.582Z,26.41
2017-05-28T14:38:15.987Z,26.37
2017-05-28T14:39:31.862Z,26.4
2017-05-28T14:40:47.805Z,26.4
2017-05-28T14:42:03.270Z,26.34
2017-05-28T14:43:17.632Z,26.31
2017-05-28T14:44:33.150Z,26.46
2017-05-28T14:45:48.632Z,26.46
2017-05-28T14:47:04.175Z,26.41
2017-05-28T14:48:18.385Z,26.4
2017-05-28T14:49:33.825Z,26.36
2017-05-28T14:50:49.338Z,26.39
2017-05-28T14:52:04.866Z,26.3
2017-05-28T14:53:20.633Z,26.37
2017-05-28T14:54:36.075Z,26.3
2017-05-28T14:55:50.283Z,26.24
2017-05-28T14:57:05.831Z,26.18
2017-05-28T14:58:21.736Z,26.25
2017-05-28T14:59:37.246Z,26.18
2017-05-28T15:00:52.793Z,26.19
2017-05-28T15:02:08.292Z,26.22
2017-05-28T15:03:22.992Z,26.21
2017-05-28T15:04:38.472Z,26.25
2017-05-28T15:05:53.971Z,26.18
2017-05-28T15:07:09.566Z,26.3
2017-05-28T15:08:25.241Z,26.3
2017-05-28T15:09:40.726Z,26.34
2017-05-28T15:10:56.281Z,26.25
2017-05-28T15:12:11.805Z,26.34
2017-05-28T15:13:26.212Z,26.3
2017-05-28T15:14:41.650Z,26.31
2017-05-28T15:15:57.058Z,26.31
2017-05-28T15:17:12.606Z,26.33
2017-05-28T15:18:28.333Z,26.37
2017-05-28T15:19:43.798Z,26.39
2017-05-28T15:20:59.403Z,26.4
2017-05-28T15:22:14.878Z,26.34
2017-05-28T15:23:30.655Z,26.39
2017-05-28T15:24:46.147Z,26.43
2017-05-28T15:26:01.681Z,26.45
2017-05-28T15:27:15.847Z,26.36
2017-05-28T15:28:30.016Z,26.36
2017-05-28T15:29:45.718Z,26.34
2017-05-28T15:31:01.240Z,26.45
2017-05-28T15:32:16.757Z,26.41
2017-05-28T15:33:32.240Z,26.39
2017-05-28T15:34:46.552Z,26.43
2017-05-28T15:36:02.056Z,26.41
2017-05-28T15:37:17.821Z,26.37
2017-05-28T15:38:33.285Z,26.45
2017-05-28T15:39:48.970Z,26.46
2017-05-28T15:41:03.010Z,26.53
2017-05-28T15:42:18.493Z,26.49
2017-05-28T15:43:33.921Z,26.52
2017-05-28T15:44:49.685Z,26.48
2017-05-28T15:46:05.175Z,26.56
2017-05-28T15:47:20.742Z,26.51
2017-05-28T15:48:34.773Z,26.46
2017-05-28T15:49:50.491Z,26.46
2017-05-28T15:51:06.183Z,26.41
2017-05-28T15:52:21.771Z,26.39
2017-05-28T15:53:37.266Z,26.41
2017-05-28T15:54:52.933Z,26.45
2017-05-28T15:56:08.398Z,26.48
2017-05-28T15:57:23.893Z,26.31
2017-05-28T15:58:39.377Z,26.37
2017-05-28T15:59:55.034Z,26.39
2017-05-28T16:01:10.483Z,26.39
2017-05-28T16:02:26.015Z,26.37
2017-05-28T16:03:41.795Z,26.46
2017-05-28T16:04:57.912Z,26.51
2017-05-28T16:06:13.439Z,26.51
2017-05-28T16:07:28.616Z,26.55
2017-05-28T16:08:44.089Z,26.62
2017-05-28T16:09:59.799Z,26.67
2017-05-28T16:11:12.608Z,26.68
2017-05-28T16:12:28.106Z,26.82
2017-05-28T16:13:43.592Z,26.8